createdAt,value
2023-03-14T00:00:01.682Z,94590.25
2023-03-14T00:02:29.647Z,94579.16
2023-03-14T00:04:58.299Z,94580.88
2023-03-14T00:07:26.489Z,94585.63
2023-03-14T00:09:55.924Z,94577.53
2023-03-14T00:12:23.847Z,94586.22
2023-03-14T00:14:51.829Z,94591.81
2023-03-14T00:17:19.765Z,94581.19
2023-03-14T00:19:47.729Z,94576.31
2023-03-14T00:22:15.682Z,94572.88
2023-03-14T00:24:43.568Z,94565.94
2023-03-14T00:27:12.959Z,94569.84
2023-03-14T00:29:40.873Z,94569.69
2023-03-14T00:32:08.776Z,94566.84
2023-03-14T00:34:36.966Z,94565.47
2023-03-14T00:37:04.941Z,94565.75
2023-03-14T00:39:32.888Z,94558.09
2023-03-14T00:42:00.767Z,94556.13
2023-03-14T00:44:30.171Z,94547.25
2023-03-14T00:46:58.143Z,94540.72
2023-03-14T00:49:26.170Z,94546.47
2023-03-14T00:51:54.227Z,94542.13
2023-03-14T00:54:22.447Z,94551.91
2023-03-14T00:56:50.422Z,94544.50
2023-03-14T00:59:18.597Z,94547.63
2023-03-14T01:01:47.933Z,94550.06
2023-03-14T01:04:16.037Z,94553.50
2023-03-14T01:06:43.992Z,94549.44
2023-03-14T01:09:11.909Z,94559.97
2023-03-14T01:11:39.911Z,94556.97
2023-03-14T01:14:07.825Z,94564.69
2023-03-14T01:16:36.990Z,94557.94
2023-03-14T01:19:06.489Z,94556.94
2023-03-14T01:21:36.129Z,94559.66
2023-03-14T01:24:05.153Z,94562.78
2023-03-14T01:26:34.692Z,94559.06
2023-03-14T01:29:03.183Z,94565.22
2023-03-14T01:31:31.260Z,94560.88
2023-03-14T01:33:59.242Z,94570.50
2023-03-14T01:36:30.435Z,94593.63
2023-03-14T01:38:59.381Z,94585.41
2023-03-14T01:41:28.275Z,94585.44
2023-03-14T01:43:56.327Z,94577.53
2023-03-14T01:46:36.713Z,94561.75
2023-03-14T01:49:09.133Z,94589.84
2023-03-14T01:51:44.806Z,94570.47
2023-03-14T01:54:18.487Z,94572.25
2023-03-14T01:56:49.426Z,94586.94
2023-03-14T01:59:17.490Z,94577.03
2023-03-14T02:01:47.036Z,94575.41
2023-03-14T02:04:15.228Z,94579.16
2023-03-14T02:06:51.069Z,94573.09
2023-03-14T02:09:19.378Z,94587.53
2023-03-14T02:11:47.390Z,94589.66
2023-03-14T02:14:21.809Z,94601.28
2023-03-14T02:16:49.774Z,94586.84
2023-03-14T02:19:21.947Z,94598.03
2023-03-14T02:21:56.260Z,94594.91
2023-03-14T02:24:29.657Z,94597.63
2023-03-14T02:27:16.550Z,94593.06
2023-03-14T02:29:50.768Z,94587.44
2023-03-14T02:32:20.079Z,94599.97
2023-03-14T02:34:50.601Z,94600.97
2023-03-14T02:37:20.082Z,94595.72
2023-03-14T02:39:50.184Z,94605.13
2023-03-14T02:42:19.579Z,94608.16
2023-03-14T02:44:56.106Z,94617.03
2023-03-14T02:47:28.894Z,94621.09
2023-03-14T02:50:01.847Z,94622.09
2023-03-14T02:52:30.000Z,94629.97
2023-03-14T02:54:58.021Z,94616.97
2023-03-14T02:57:27.439Z,94635.94
2023-03-14T02:59:55.379Z,94647.00
2023-03-14T03:02:23.494Z,94671.16
2023-03-14T03:04:51.412Z,94672.66
2023-03-14T03:07:20.159Z,94675.47
2023-03-14T03:09:48.185Z,94674.06
2023-03-14T03:12:16.199Z,94671.00
2023-03-14T03:14:45.464Z,94661.47
2023-03-14T03:17:13.382Z,94672.59
2023-03-14T03:19:41.276Z,94680.03
2023-03-14T03:22:09.221Z,94706.28
2023-03-14T03:24:37.382Z,94717.19
2023-03-14T03:27:05.313Z,94715.47
2023-03-14T03:29:33.202Z,94716.09
2023-03-14T03:32:02.706Z,94706.25
2023-03-14T03:34:30.930Z,94691.78
2023-03-14T03:36:58.933Z,94697.53
2023-03-14T03:39:26.832Z,94690.03
2023-03-14T03:41:54.766Z,94684.03
2023-03-14T03:44:22.868Z,94686.91
2023-03-14T03:46:50.815Z,94656.22
2023-03-14T03:49:20.119Z,94656.91
2023-03-14T03:51:48.191Z,94660.47
2023-03-14T03:54:16.149Z,94664.81
2023-03-14T03:56:44.063Z,94665.66
2023-03-14T03:59:12.118Z,94684.44
2023-03-14T04:01:40.070Z,94692.41
2023-03-14T04:04:08.362Z,94681.78
2023-03-14T04:06:38.880Z,94700.50
2023-03-14T04:09:06.877Z,94696.72
2023-03-14T04:11:34.829Z,94692.19
2023-03-14T04:14:02.772Z,94685.47
2023-03-14T04:16:32.443Z,94695.44
2023-03-14T04:19:00.420Z,94702.72
2023-03-14T04:21:28.395Z,94711.66
2023-03-14T04:23:57.756Z,94705.09
2023-03-14T04:26:25.774Z,94702.56
2023-03-14T04:28:53.688Z,94725.53
2023-03-14T04:31:23.073Z,94738.09
2023-03-14T04:33:51.149Z,94717.06
2023-03-14T04:36:19.100Z,94694.13
2023-03-14T04:38:47.035Z,94695.84
2023-03-14T04:41:16.366Z,94695.72
2023-03-14T04:43:44.283Z,94678.31
2023-03-14T04:46:12.291Z,94678.56
2023-03-14T04:48:40.226Z,94681.53
2023-03-14T04:51:08.848Z,94690.31
2023-03-14T04:53:38.101Z,94689.47
2023-03-14T04:56:07.101Z,94681.28
2023-03-14T04:58:36.456Z,94693.94
2023-03-14T05:01:05.624Z,94684.34
2023-03-14T05:03:33.548Z,94696.69
2023-03-14T05:06:01.843Z,94708.47
2023-03-14T05:08:29.755Z,94703.94
2023-03-14T05:10:58.738Z,94719.38
2023-03-14T05:13:26.864Z,94717.59
2023-03-14T05:15:57.155Z,94715.72
2023-03-14T05:18:25.169Z,94717.56
2023-03-14T05:20:53.411Z,94719.88
2023-03-14T05:23:21.504Z,94727.25
2023-03-14T05:25:49.423Z,94747.38
2023-03-14T05:28:17.410Z,94760.56
2023-03-14T05:30:45.308Z,94770.09
2023-03-14T05:33:14.650Z,94739.88
2023-03-14T05:35:42.668Z,94771.56
2023-03-14T05:38:10.641Z,94771.19
2023-03-14T05:40:38.557Z,94786.50
2023-03-14T05:43:08.981Z,94782.34
2023-03-14T05:45:37.427Z,94792.69
2023-03-14T05:48:05.890Z,94790.66
2023-03-14T05:50:35.209Z,94784.75
2023-03-14T05:53:03.219Z,94763.66
2023-03-14T05:55:31.175Z,94765.44
2023-03-14T05:57:59.170Z,94759.13
2023-03-14T06:00:27.161Z,94758.97
2023-03-14T06:02:55.230Z,94756.81
2023-03-14T06:05:23.260Z,94751.47
2023-03-14T06:07:52.536Z,94744.75
2023-03-14T06:10:20.743Z,94741.16
2023-03-14T06:12:48.747Z,94738.34
2023-03-14T06:15:16.736Z,94754.72
2023-03-14T06:17:44.651Z,94762.25
2023-03-14T06:20:13.542Z,94759.69
2023-03-14T06:22:43.045Z,94756.72
2023-03-14T06:25:12.533Z,94749.19
2023-03-14T06:27:40.478Z,94751.47
2023-03-14T06:30:10.562Z,94746.09
2023-03-14T06:32:38.544Z,94759.38
2023-03-14T06:35:07.224Z,94748.38
2023-03-14T06:37:35.214Z,94751.84
2023-03-14T06:40:03.675Z,94727.28
2023-03-14T06:42:33.025Z,94719.38
2023-03-14T06:45:00.981Z,94718.19
2023-03-14T06:47:28.883Z,94714.47
2023-03-14T06:49:56.839Z,94721.16
2023-03-14T06:52:24.742Z,94714.47
2023-03-14T06:54:52.681Z,94714.44
2023-03-14T06:57:20.658Z,94720.88
2023-03-14T06:59:50.154Z,94720.63
2023-03-14T07:02:18.050Z,94742.63
2023-03-14T07:04:46.027Z,94737.78
2023-03-14T07:07:13.973Z,94734.84
2023-03-14T07:09:41.940Z,94731.66
2023-03-14T07:12:09.902Z,94736.47
2023-03-14T07:14:37.848Z,94737.41
2023-03-14T07:17:07.140Z,94740.63
2023-03-14T07:19:35.207Z,94731.78
2023-03-14T07:22:03.173Z,94726.13
2023-03-14T07:24:31.109Z,94723.03
2023-03-14T07:26:59.062Z,94715.13
2023-03-14T07:29:26.979Z,94716.75
2023-03-14T07:31:54.947Z,94702.00
2023-03-14T07:34:24.258Z,94711.25
2023-03-14T07:36:52.170Z,94694.88
2023-03-14T07:39:20.130Z,94707.63
2023-03-14T07:41:48.078Z,94711.38
2023-03-14T07:44:15.968Z,94711.38
2023-03-14T07:46:43.958Z,94711.09
2023-03-14T07:49:11.996Z,94715.38
2023-03-14T07:51:41.374Z,94700.50
2023-03-14T07:54:09.343Z,94706.94
2023-03-14T07:56:37.260Z,94702.41
2023-03-14T07:59:05.628Z,94704.00
2023-03-14T08:01:33.824Z,94696.84
2023-03-14T08:04:01.905Z,94702.22
2023-03-14T08:06:30.018Z,94705.03
2023-03-14T08:08:59.411Z,94707.00
2023-03-14T08:11:27.345Z,94712.13
2023-03-14T08:13:55.273Z,94712.81
2023-03-14T08:16:23.286Z,94708.72
2023-03-14T08:18:51.211Z,94718.94
2023-03-14T08:21:19.189Z,94716.28
2023-03-14T08:23:47.198Z,94731.06
2023-03-14T08:26:16.520Z,94733.28
2023-03-14T08:28:44.470Z,94735.19
2023-03-14T08:31:12.506Z,94739.75
2023-03-14T08:33:40.754Z,94737.31
2023-03-14T08:36:09.427Z,94732.19
2023-03-14T08:38:37.354Z,94736.53
2023-03-14T08:41:06.039Z,94732.91
2023-03-14T08:43:35.382Z,94732.88
2023-03-14T08:46:03.697Z,94723.19
2023-03-14T08:48:31.888Z,94730.56
2023-03-14T08:51:06.972Z,94730.75
2023-03-14T08:53:34.975Z,94732.78
2023-03-14T08:56:02.965Z,94738.06
2023-03-14T08:58:31.339Z,94742.50
2023-03-14T09:01:00.789Z,94734.03
2023-03-14T09:03:29.457Z,94743.53
2023-03-14T09:05:57.533Z,94755.41
2023-03-14T09:08:25.490Z,94755.19
2023-03-14T09:10:53.520Z,94749.91
2023-03-14T09:13:21.461Z,94761.47
2023-03-14T09:15:53.005Z,94764.81
2023-03-14T09:18:23.586Z,94764.28
2023-03-14T09:20:51.956Z,94767.56
2023-03-14T09:23:19.996Z,94776.28
2023-03-14T09:25:47.911Z,94781.53
2023-03-14T09:28:15.959Z,94781.94
2023-03-14T09:30:44.055Z,94781.78
2023-03-14T09:33:11.989Z,94774.94
2023-03-14T09:35:41.416Z,94763.22
2023-03-14T09:38:09.423Z,94779.47
2023-03-14T09:40:38.577Z,94779.19
2023-03-14T09:43:07.168Z,94773.56
2023-03-14T09:45:37.390Z,94778.38
2023-03-14T09:48:06.734Z,94788.59
2023-03-14T09:50:39.835Z,94792.47
2023-03-14T09:53:15.533Z,94795.88
2023-03-14T09:55:44.501Z,94796.72
2023-03-14T09:58:22.678Z,94786.06
2023-03-14T10:00:51.677Z,94781.09
2023-03-14T10:03:25.336Z,94785.13
2023-03-14T10:05:53.294Z,94788.50
2023-03-14T10:08:22.583Z,94776.78
2023-03-14T10:10:50.620Z,94779.81
2023-03-14T10:13:20.766Z,94797.09
2023-03-14T10:15:54.864Z,94783.09
2023-03-14T10:18:25.711Z,94790.66
2023-03-14T10:21:05.565Z,94798.72
2023-03-14T10:23:35.972Z,94800.50
2023-03-14T10:26:14.818Z,94807.38
2023-03-14T10:28:46.054Z,94804.94
2023-03-14T10:31:14.109Z,94798.22
2023-03-14T10:33:42.770Z,94805.72
2023-03-14T10:36:21.803Z,94783.84
2023-03-14T10:38:51.226Z,94777.09
2023-03-14T10:41:21.671Z,94769.19
2023-03-14T10:43:53.218Z,94779.03
2023-03-14T10:46:22.062Z,94768.53
2023-03-14T10:48:50.755Z,94773.91
2023-03-14T10:51:22.152Z,94777.25
2023-03-14T10:53:57.607Z,94790.09
2023-03-14T10:56:27.461Z,94789.84
2023-03-14T10:58:57.215Z,94798.00
2023-03-14T11:01:34.647Z,94803.28
2023-03-14T11:04:07.355Z,94800.19
2023-03-14T11:06:38.893Z,94801.97
2023-03-14T11:09:14.806Z,94810.44
2023-03-14T11:11:45.598Z,94802.22
2023-03-14T11:14:19.828Z,94807.06
2023-03-14T11:16:54.561Z,94811.03
2023-03-14T11:19:46.092Z,94804.75
2023-03-14T11:22:23.220Z,94791.72
2023-03-14T11:25:01.902Z,94797.31
2023-03-14T11:27:34.864Z,94792.25
2023-03-14T11:30:07.865Z,94800.72
2023-03-14T11:32:43.433Z,94802.34
2023-03-14T11:35:18.925Z,94809.06
2023-03-14T11:37:49.428Z,94823.00
2023-03-14T11:40:20.073Z,94818.66
2023-03-14T11:42:52.201Z,94809.78
2023-03-14T11:45:22.772Z,94810.19
2023-03-14T11:47:54.985Z,94807.31
2023-03-14T11:50:26.431Z,94803.50
2023-03-14T11:52:56.935Z,94806.50
2023-03-14T11:55:28.536Z,94809.53
2023-03-14T11:58:00.835Z,94793.97
2023-03-14T12:00:29.216Z,94774.22
2023-03-14T12:03:01.372Z,94785.44
2023-03-14T12:05:47.737Z,94789.78
2023-03-14T12:08:27.989Z,94792.88
2023-03-14T12:11:01.658Z,94795.09
2023-03-14T12:13:31.238Z,94788.88
2023-03-14T12:16:01.350Z,94795.31
2023-03-14T12:18:30.856Z,94784.66
2023-03-14T12:21:01.262Z,94793.38
2023-03-14T12:23:30.423Z,94794.41
2023-03-14T12:26:18.107Z,94800.06
2023-03-14T12:28:50.963Z,94794.09
2023-03-14T12:31:40.658Z,94790.22
2023-03-14T12:34:33.263Z,94792.75
2023-03-14T12:37:13.063Z,94791.69
2023-03-14T12:39:47.146Z,94796.28
2023-03-14T12:42:20.812Z,94787.81
2023-03-14T12:44:50.431Z,94787.31
2023-03-14T12:48:05.905Z,94777.53
2023-03-14T12:50:37.947Z,94782.78
2023-03-14T12:53:38.198Z,94786.16
2023-03-14T12:56:13.675Z,94790.19
2023-03-14T12:58:46.492Z,94768.53
2023-03-14T13:01:18.776Z,94788.41
2023-03-14T13:03:48.869Z,94790.81
2023-03-14T13:06:52.171Z,94788.50
2023-03-14T13:09:53.084Z,94806.53
2023-03-14T13:12:28.777Z,94797.69
2023-03-14T13:15:00.316Z,94794.97
2023-03-14T13:17:36.110Z,94772.69
2023-03-14T13:20:12.437Z,94781.78
2023-03-14T13:22:40.446Z,94768.13
2023-03-14T13:25:11.752Z,94770.13
2023-03-14T13:27:40.083Z,94766.91
2023-03-14T13:30:24.970Z,94762.50
2023-03-14T13:32:53.970Z,94769.06
2023-03-14T13:35:25.171Z,94767.59
2023-03-14T13:38:10.745Z,94764.50
2023-03-14T13:40:39.771Z,94745.84
2023-03-14T13:43:14.958Z,94757.41
2023-03-14T13:45:50.909Z,94751.22
2023-03-14T13:48:19.395Z,94751.47
2023-03-14T13:50:51.203Z,94747.75
2023-03-14T13:53:19.174Z,94746.81
2023-03-14T13:55:47.215Z,94735.00
2023-03-14T13:58:27.563Z,94736.47
2023-03-14T14:01:02.833Z,94737.13
2023-03-14T14:03:33.501Z,94741.16
2023-03-14T14:06:01.618Z,94742.94
2023-03-14T14:08:29.680Z,94736.84
2023-03-14T14:11:01.950Z,94731.59
2023-03-14T14:13:32.394Z,94728.66
2023-03-14T14:16:03.025Z,94723.69
2023-03-14T14:18:33.231Z,94725.16
2023-03-14T14:21:01.276Z,94725.03
2023-03-14T14:23:30.536Z,94719.31
2023-03-14T14:25:59.484Z,94708.47
2023-03-14T14:28:29.694Z,94709.78
2023-03-14T14:31:08.318Z,94719.72
2023-03-14T14:33:43.653Z,94735.13
2023-03-14T14:36:21.009Z,94728.38
2023-03-14T14:38:56.468Z,94720.34
2023-03-14T14:41:29.303Z,94721.16
2023-03-14T14:43:57.479Z,94714.13
2023-03-14T14:46:28.914Z,94711.34
2023-03-14T14:48:58.584Z,94710.75
2023-03-14T14:51:29.026Z,94729.03
2023-03-14T14:54:05.381Z,94723.44
2023-03-14T14:56:37.918Z,94721.00
2023-03-14T14:59:08.031Z,94718.13
2023-03-14T15:01:40.449Z,94715.13
2023-03-14T15:04:13.538Z,94722.63
2023-03-14T15:06:42.039Z,94723.22
2023-03-14T15:09:11.228Z,94721.63
2023-03-14T15:11:39.275Z,94715.22
2023-03-14T15:14:07.870Z,94721.66
2023-03-14T15:16:37.402Z,94719.09
2023-03-14T15:19:23.538Z,94723.53
2023-03-14T15:21:52.330Z,94711.56
2023-03-14T15:24:20.316Z,94727.31
2023-03-14T15:26:48.256Z,94725.59
2023-03-14T15:29:16.177Z,94725.09
2023-03-14T15:31:46.057Z,94727.34
2023-03-14T15:34:14.079Z,94727.81
2023-03-14T15:36:42.003Z,94732.41
2023-03-14T15:39:12.100Z,94733.88
2023-03-14T15:41:40.081Z,94738.09
2023-03-14T15:44:07.999Z,94741.47
2023-03-14T15:46:35.949Z,94722.69
2023-03-14T15:49:05.288Z,94734.38
2023-03-14T15:51:33.976Z,94738.38
2023-03-14T15:54:01.893Z,94736.69
2023-03-14T15:56:31.973Z,94741.53
2023-03-14T15:59:01.361Z,94746.09
2023-03-14T16:01:29.403Z,94752.13
2023-03-14T16:03:57.516Z,94749.03
2023-03-14T16:06:27.254Z,94746.09
2023-03-14T16:08:55.204Z,94754.19
2023-03-14T16:11:23.233Z,94745.31
2023-03-14T16:13:51.390Z,94756.47
2023-03-14T16:16:19.389Z,94756.03
2023-03-14T16:18:47.390Z,94757.66
2023-03-14T16:21:16.974Z,94748.16
2023-03-14T16:23:46.941Z,94762.91
2023-03-14T16:26:16.649Z,94758.88
2023-03-14T16:28:45.576Z,94760.19
2023-03-14T16:31:16.391Z,94777.00
2023-03-14T16:33:44.918Z,94781.56
2023-03-14T16:36:14.017Z,94782.38
2023-03-14T16:38:43.627Z,94770.03
2023-03-14T16:41:14.803Z,94781.44
2023-03-14T16:43:43.340Z,94782.78
2023-03-14T16:46:14.109Z,94787.91
2023-03-14T16:48:42.353Z,94791.94
2023-03-14T16:51:10.743Z,94793.91
2023-03-14T16:53:38.799Z,94798.34
2023-03-14T16:56:07.583Z,94799.41
2023-03-14T16:58:36.983Z,94807.06
2023-03-14T17:01:10.128Z,94805.28
2023-03-14T17:03:38.681Z,94816.97
2023-03-14T17:06:07.558Z,94812.94
2023-03-14T17:08:35.797Z,94829.09
2023-03-14T17:11:03.825Z,94830.06
2023-03-14T17:13:31.780Z,94834.47
2023-03-14T17:16:01.769Z,94850.28
2023-03-14T17:18:30.996Z,94855.59
2023-03-14T17:20:59.597Z,94859.38
2023-03-14T17:23:28.689Z,94856.53
2023-03-14T17:25:56.734Z,94858.19
2023-03-14T17:28:26.131Z,94862.78
2023-03-14T17:31:04.761Z,94871.56
2023-03-14T17:33:32.711Z,94868.66
2023-03-14T17:36:00.732Z,94855.69
2023-03-14T17:38:28.845Z,94874.00
2023-03-14T17:40:56.783Z,94883.94
2023-03-14T17:43:24.880Z,94895.22
2023-03-14T17:45:59.004Z,94902.44
2023-03-14T17:48:28.470Z,94916.63
2023-03-14T17:50:59.015Z,94922.06
2023-03-14T17:53:29.468Z,94926.94
2023-03-14T17:55:57.704Z,94916.38
2023-03-14T17:58:25.694Z,94934.69
2023-03-14T18:00:53.595Z,94938.94
2023-03-14T18:03:22.563Z,94925.94
2023-03-14T18:05:51.849Z,94947.22
2023-03-14T18:08:19.750Z,94958.81
2023-03-14T18:10:47.820Z,94953.50
2023-03-14T18:13:15.747Z,94965.34
2023-03-14T18:15:43.733Z,94977.31
2023-03-14T18:18:11.682Z,94978.69
2023-03-14T18:20:39.665Z,94984.97
2023-03-14T18:23:09.208Z,94977.44
2023-03-14T18:25:37.111Z,94988.66
2023-03-14T18:28:05.096Z,94992.63
2023-03-14T18:30:32.992Z,95003.69
2023-03-14T18:33:01.188Z,95000.34
2023-03-14T18:35:29.166Z,95006.38
2023-03-14T18:37:57.088Z,95006.81
2023-03-14T18:40:26.593Z,95002.53
2023-03-14T18:42:56.135Z,94983.94
2023-03-14T18:45:24.114Z,95000.56
2023-03-14T18:47:52.014Z,95000.72
2023-03-14T18:50:20.081Z,94995.94
2023-03-14T18:52:48.009Z,95004.06
2023-03-14T18:55:16.148Z,95006.38
2023-03-14T18:57:45.794Z,95019.09
2023-03-14T19:00:15.438Z,95022.88
2023-03-14T19:02:43.460Z,95028.31
2023-03-14T19:05:13.166Z,95020.25
2023-03-14T19:07:41.110Z,95033.88
2023-03-14T19:10:10.254Z,95024.16
2023-03-14T19:12:38.130Z,95057.09
2023-03-14T19:15:09.648Z,95067.28
2023-03-14T19:17:37.920Z,95071.75
2023-03-14T19:20:06.955Z,95077.63
2023-03-14T19:22:34.967Z,95091.69
2023-03-14T19:25:04.013Z,95105.03
2023-03-14T19:27:31.956Z,95113.00
2023-03-14T19:29:59.851Z,95139.97
2023-03-14T19:32:29.277Z,95135.28
2023-03-14T19:34:57.426Z,95147.59
2023-03-14T19:37:25.974Z,95146.72
2023-03-14T19:39:53.918Z,95139.47
2023-03-14T19:42:21.810Z,95138.03
2023-03-14T19:44:49.681Z,95138.16
2023-03-14T19:47:17.729Z,95141.13
2023-03-14T19:49:47.004Z,95133.81
2023-03-14T19:52:14.946Z,95130.56
2023-03-14T19:54:43.122Z,95131.28
2023-03-14T19:57:10.998Z,95142.94
2023-03-14T19:59:39.015Z,95158.34
2023-03-14T20:02:06.985Z,95170.94
2023-03-14T20:04:35.059Z,95170.84
2023-03-14T20:07:04.843Z,95163.34
2023-03-14T20:09:32.937Z,95166.69
2023-03-14T20:12:01.305Z,95171.84
2023-03-14T20:14:29.239Z,95176.84
2023-03-14T20:16:57.205Z,95180.41
2023-03-14T20:19:25.114Z,95193.56
2023-03-14T20:21:53.069Z,95189.41
2023-03-14T20:24:22.376Z,95208.50
2023-03-14T20:26:50.301Z,95222.16
2023-03-14T20:29:18.384Z,95229.16
2023-03-14T20:31:46.276Z,95243.03
2023-03-14T20:34:14.155Z,95249.50
2023-03-14T20:36:42.063Z,95248.19
2023-03-14T20:39:10.391Z,95244.94
2023-03-14T20:41:42.372Z,95248.56
2023-03-14T20:44:11.403Z,95241.31
2023-03-14T20:46:39.657Z,95256.53
2023-03-14T20:49:07.947Z,95243.22
2023-03-14T20:51:35.922Z,95253.38
2023-03-14T20:54:03.866Z,95262.06
2023-03-14T20:56:31.763Z,95264.78
2023-03-14T20:59:01.025Z,95269.31
2023-03-14T21:01:29.207Z,95277.03
2023-03-14T21:03:57.146Z,95274.94
2023-03-14T21:06:25.822Z,95302.00
2023-03-14T21:08:53.763Z,95282.81
2023-03-14T21:11:21.678Z,95303.97
2023-03-14T21:13:49.652Z,95307.53
2023-03-14T21:16:18.992Z,95315.06
2023-03-14T21:18:46.945Z,95313.66
2023-03-14T21:21:15.485Z,95323.63
2023-03-14T21:23:43.467Z,95334.47
2023-03-14T21:26:11.450Z,95326.97
2023-03-14T21:28:39.357Z,95325.09
2023-03-14T21:31:07.865Z,95333.56
2023-03-14T21:33:37.346Z,95337.22
2023-03-14T21:36:05.965Z,95336.13
2023-03-14T21:38:34.066Z,95335.03
2023-03-14T21:41:01.982Z,95342.44
2023-03-14T21:43:30.160Z,95332.56
2023-03-14T21:45:58.076Z,95328.97
2023-03-14T21:48:26.000Z,95329.50
2023-03-14T21:50:55.272Z,95332.69
2023-03-14T21:53:30.307Z,95343.69
2023-03-14T21:55:58.744Z,95345.69
2023-03-14T21:58:26.748Z,95343.16
2023-03-14T22:00:55.383Z,95337.56
2023-03-14T22:03:23.903Z,95351.94
2023-03-14T22:05:51.977Z,95355.28
2023-03-14T22:08:22.822Z,95343.44
2023-03-14T22:10:52.728Z,95334.84
2023-03-14T22:13:21.410Z,95336.66
2023-03-14T22:15:50.747Z,95346.59
2023-03-14T22:18:19.925Z,95348.22
2023-03-14T22:20:48.122Z,95356.44
2023-03-14T22:23:16.252Z,95354.34
2023-03-14T22:25:49.339Z,95363.84
2023-03-14T22:28:18.655Z,95367.81
2023-03-14T22:30:47.883Z,95367.00
2023-03-14T22:33:16.136Z,95359.06
2023-03-14T22:35:44.200Z,95346.59
2023-03-14T22:38:12.144Z,95350.19
2023-03-14T22:40:40.047Z,95352.72
2023-03-14T22:43:09.338Z,95360.06
2023-03-14T22:45:37.327Z,95372.09
2023-03-14T22:48:05.806Z,95373.63
2023-03-14T22:50:33.836Z,95370.47
2023-03-14T22:53:03.366Z,95375.72
2023-03-14T22:55:31.903Z,95369.13
2023-03-14T22:57:59.798Z,95367.47
2023-03-14T23:00:29.510Z,95365.75
2023-03-14T23:02:57.465Z,95357.47
2023-03-14T23:05:25.490Z,95378.97
2023-03-14T23:07:53.917Z,95379.69
2023-03-14T23:10:21.971Z,95383.66
2023-03-14T23:12:49.944Z,95393.41
2023-03-14T23:15:17.880Z,95392.13
2023-03-14T23:17:47.494Z,95384.94
2023-03-14T23:20:15.417Z,95390.63
2023-03-14T23:22:43.388Z,95389.38
2023-03-14T23:25:13.172Z,95386.53
2023-03-14T23:27:46.421Z,95380.94
2023-03-14T23:30:15.725Z,95383.66
2023-03-14T23:32:43.961Z,95388.19
2023-03-14T23:35:14.775Z,95396.50
2023-03-14T23:37:42.715Z,95391.91
2023-03-14T23:40:12.095Z,95401.19
2023-03-14T23:42:40.350Z,95404.72
2023-03-14T23:45:09.226Z,95402.75
2023-03-14T23:47:37.118Z,95396.84
2023-03-14T23:50:05.390Z,95403.09
2023-03-14T23:52:34.671Z,95403.19
2023-03-14T23:55:02.573Z,95394.22
2023-03-14T23:57:30.495Z,95411.16
2023-03-14T23:59:58.405Z,95421.97
